Date,TemperatureHighF,TemperatureAvgF,TemperatureLowF,DewpointHighF,DewpointAvgF,DewpointLowF,HumidityHigh,HumidityAvg,HumidityLow,PressureMaxIn,PressureMinIn,WindSpeedMaxMPH,WindSpeedAvgMPH,GustSpeedMaxMPH,PrecipitationSumIn
2013-1-1,57,43,34,44,35,30,96,76,36,30.28,30.18,10,2,17,0.00
2013-1-2,54,42,32,38,34,28,93,74,51,30.24,30.12,13,4,15,0.00
2013-1-3,56,41,30,42,35,28,94,79,53,30.27,30.16,8,2,11,0.00
2013-1-4,57,44,34,44,37,31,94,78,55,30.29,30.16,9,2,11,0.00
2013-1-5,50,44,35,45,40,32,95,90,79,30.25,30.05,3,3,0,0.18
2013-1-6,58,48,40,48,44,38,96,87,63,30.18,30.04,7,2,9,0.00
2013-1-7,65,48,37,54,43,36,97,85,61,30.25,30.13,7,1,9,0.01
2013-1-8,62,47,38,50,43,37,96,86,66,30.24,30.12,10,2,11,0.00
2013-1-9,54,45,39,51,42,35,98,89,76,30.15,29.97,2,2,0,0.00
2013-1-10,54,42,34,39,34,32,93,74,45,30.19,30.06,15,2,17,0.00
2013-1-11,56,43,36,43,36,31,88,78,58,30.25,30.10,12,0,16,0.00
2013-1-12,54,42,30,40,32,26,93,73,45,30.25,30.12,6,0,7,0.00
2013-1-13,56,40,26,38,29,15,92,70,27,30.27,30.16,6,0,7,0.00
2013-1-14,58,44,31,34,26,15,83,52,26,30.39,30.20,6,1,7,0.00
2013-1-15,53,40,30,39,32,27,92,75,47,30.48,30.38,9,2,12,0.00
2013-1-16,60,42,30,40,33,27,92,75,46,30.44,30.26,5,2,7,0.00
2013-1-17,60,43,30,43,35,28,99,76,47,30.27,30.13,11,1,13,0.00
2013-1-18,61,44,31,44,36,29,95,74,49,30.23,30.12,14,2,14,0.00
2013-1-19,62,45,31,44,36,28,94,73,46,30.24,30.14,13,2,14,0.00
2013-1-20,62,44,31,42,34,28,93,71,40,30.23,30.11,14,3,15,0.00
2013-1-21,62,46,30,44,36,27,96,73,46,30.17,30.07,14,4,14,0.00
2013-1-22,61,49,34,44,39,31,94,72,49,30.11,29.97,13,5,14,0.00
2013-1-23,53,51,49,49,46,42,95,83,69,30.08,29.94,3,3,0,0.27
2013-1-24,60,53,49,54,50,47,96,92,80,30.18,30.06,7,3,9,0.00
2013-1-25,65,55,50,58,52,48,97,88,73,30.18,30.02,7,2,10,0.01
2013-1-26,61,52,43,51,46,38,95,81,57,30.06,29.95,14,1,14,0.00
2013-1-27,60,46,36,43,38,33,92,76,45,30.17,30.05,10,1,13,0.00
2013-1-28,61,48,39,47,40,35,89,76,48,30.28,30.15,15,2,17,0.00
2013-1-29,65,50,39,48,42,36,91,77,50,30.35,30.25,10,1,12,0.00
2013-1-30,71,52,39,53,43,36,93,74,44,30.33,30.23,5,0,5,0.00
2013-1-31,66,49,36,48,42,34,94,78,53,30.29,30.16,9,2,12,0.00
2013-2-1,67,50,36,49,42,33,95,76,48,30.20,30.09,12,3,12,0.00
2013-2-2,63,50,42,53,46,40,95,86,67,30.29,30.20,7,2,10,0.00
2013-2-3,64,50,40,52,45,38,94,84,62,30.24,30.13,6,2,10,0.00
2013-2-4,56,47,42,52,44,39,96,91,79,30.17,30.05,12,0,13,0.00
2013-2-5,61,51,44,50,46,41,92,84,68,30.14,30.04,14,1,17,0.00
2013-2-6,63,48,37,48,42,35,94,81,51,30.19,30.10,15,1,15,0.00
2013-2-7,60,48,40,50,42,36,96,80,46,30.15,29.98,14,1,19,0.10
2013-2-8,60,47,38,44,39,36,94,77,50,30.02,29.92,11,1,16,0.00
2013-2-9,64,47,36,41,35,30,86,64,33,30.09,29.99,9,1,11,0.00
2013-2-10,66,45,31,49,37,28,91,74,43,30.12,30.00,6,2,11,0.00
2013-2-11,72,50,34,46,38,32,94,70,27,30.22,30.07,9,2,11,0.00
2013-2-12,64,48,39,52,43,37,96,84,43,30.36,30.21,8,1,9,0.00
2013-2-13,69,50,38,51,44,37,96,82,46,30.34,30.20,11,2,11,0.00
2013-2-14,73,52,38,55,44,36,96,77,44,30.25,30.14,6,2,7,0.00
2013-2-15,71,53,37,49,42,35,94,70,40,30.25,30.19,13,1,13,0.00
2013-2-16,74,52,40,53,44,37,93,76,38,30.24,30.03,6,0,7,0.00
2013-2-17,66,49,36,50,42,34,96,79,52,30.05,29.96,11,2,14,0.00
2013-2-18,57,45,35,47,40,33,95,82,62,30.02,29.92,12,3,14,0.00
2013-2-19,54,45,37,46,39,32,94,80,54,29.95,29.72,17,3,21,0.23
2013-2-20,64,46,33,44,38,30,92,74,46,30.05,29.84,14,2,14,0.00
2013-2-21,65,49,38,43,39,34,89,71,38,30.16,30.04,10,1,15,0.00
2013-2-22,68,50,36,47,41,34,93,76,35,30.24,30.15,10,1,12,0.00
2013-2-23,63,51,43,47,40,34,91,69,35,30.26,30.15,14,1,20,0.00
2013-2-24,70,52,41,44,36,31,81,59,27,30.25,30.14,10,1,12,0.00
2013-2-25,67,49,36,49,40,34,93,74,45,30.26,30.15,12,1,12,0.00
2013-2-26,71,49,34,43,38,31,91,69,31,30.22,30.12,9,1,14,0.00
2013-2-27,72,51,36,46,41,33,94,72,29,30.34,30.19,10,1,14,0.00
2013-2-28,69,56,47,56,49,44,93,81,60,30.43,30.34,11,1,11,0.00
2013-3-1,76,54,41,58,47,40,96,79,48,30.42,30.22,8,1,12,0.00
2013-3-2,70,55,44,56,48,42,94,79,54,30.24,30.05,10,1,11,0.00
2013-3-3,68,54,49,53,48,45,93,81,54,30.08,30.01,11,1,14,0.00
2013-3-4,61,50,42,50,45,39,94,84,64,30.14,30.04,10,1,13,0.00
2013-3-5,57,48,39,48,43,37,97,82,65,30.06,29.78,13,3,20,0.14
2013-3-6,59,51,42,49,43,38,90,75,52,30.05,29.79,10,2,12,0.14
2013-3-7,56,47,38,48,41,36,94,81,53,29.99,29.85,12,1,13,0.00
2013-3-8,63,50,41,48,43,37,88,78,56,30.03,29.83,11,1,16,0.00
2013-3-9,70,52,39,50,43,36,92,73,43,30.29,30.03,12,1,14,0.00
2013-3-10,73,53,38,51,44,36,94,74,34,30.34,30.23,9,2,12,0.00
2013-3-11,75,53,41,54,46,39,96,79,42,30.26,30.09,10,4,13,0.00
2013-3-12,76,54,44,60,48,42,96,82,51,30.16,30.05,11,2,12,0.00
2013-3-13,80,57,43,58,49,41,96,78,40,30.16,30.03,11,1,11,0.00
2013-3-14,70,54,46,57,48,43,96,81,52,30.16,30.07,11,0,14,0.00
2013-3-15,74,55,44,57,48,41,95,79,48,30.12,30.01,6,0,12,0.00
2013-3-16,74,55,42,54,47,40,95,76,44,30.11,29.99,10,0,15,0.00
2013-3-17,71,55,45,52,44,41,87,69,40,30.14,30.03,10,0,12,0.00
2013-3-18,71,53,40,53,44,37,93,75,46,30.10,30.00,8,1,10,0.00
2013-3-19,64,54,46,50,46,42,91,76,55,30.12,30.03,11,1,11,0.03
2013-3-20,59,53,48,57,50,43,95,92,79,30.12,30.04,0,0,0,0.28
2013-3-21,67,52,40,51,44,38,95,77,51,30.12,30.00,10,0,12,0.00
2013-3-22,70,54,42,44,40,36,81,63,33,30.12,30.02,10,0,10,0.00
2013-3-23,71,52,37,48,40,34,90,67,31,30.14,30.03,7,1,13,0.00
2013-3-24,73,53,39,54,44,37,93,75,44,30.08,29.96,11,2,11,0.00
2013-3-25,60,49,39,50,43,37,94,81,63,30.02,29.92,10,1,14,0.00
2013-3-26,66,52,43,51,46,41,94,79,55,30.00,29.93,10,2,13,0.00
2013-3-27,62,54,46,56,49,43,93,84,70,30.00,29.93,9,2,12,0.00
2013-3-28,66,57,51,57,52,48,94,84,68,30.07,29.98,7,1,9,0.00
2013-3-29,76,59,50,59,52,48,97,81,45,30.08,29.99,11,1,12,0.00
2013-3-30,69,58,51,57,52,49,94,84,57,30.05,29.97,7,0,11,0.07
2013-3-31,66,58,53,57,54,51,96,86,59,30.05,29.97,13,1,17,0.29
2013-4-1,64,56,50,58,53,47,97,90,75,30.14,30.02,7,0,11,0.11
2013-4-2,66,54,47,58,50,45,98,88,69,30.18,30.09,9,1,12,0.00
2013-4-3,74,55,46,58,50,45,96,85,48,30.13,29.97,13,2,15,0.00
2013-4-4,62,56,50,58,54,48,97,92,82,30.10,29.97,11,3,14,0.68
2013-4-5,68,59,54,57,54,51,95,84,63,30.17,30.09,9,0,11,0.00
2013-4-6,69,58,54,59,53,50,94,86,64,30.17,30.12,7,1,11,0.00
2013-4-7,65,56,49,56,51,46,93,83,65,30.18,29.81,9,1,19,0.19
2013-4-8,70,55,45,49,42,37,90,65,33,30.03,29.80,16,1,16,0.00
2013-4-9,77,61,46,53,46,41,84,61,34,30.11,30.01,11,1,12,0.00
2013-4-10,85,64,50,61,51,44,86,65,41,30.16,30.02,10,2,13,0.00
2013-4-11,74,59,47,54,49,44,91,71,45,30.04,29.81,7,1,13,0.00
2013-4-12,74,56,43,58,47,40,92,75,51,29.91,29.81,9,1,14,0.00
2013-4-13,69,55,44,52,46,41,92,72,52,29.89,29.80,9,1,13,0.00
2013-4-14,68,53,44,46,42,38,86,68,42,29.92,29.84,13,1,14,0.00
2013-4-15,62,51,42,45,41,36,93,71,46,29.96,29.84,15,2,16,0.00
2013-4-16,69,54,40,45,39,33,82,60,28,30.16,29.96,11,1,15,0.00
2013-4-17,70,57,44,46,39,25,77,56,20,30.26,30.16,14,0,15,0.00
2013-4-18,78,60,45,50,44,40,85,60,28,30.25,30.17,9,0,12,0.00
2013-4-19,79,61,44,60,49,40,92,68,43,30.23,30.04,7,0,10,0.00
2013-4-20,80,62,48,56,48,42,86,62,39,30.10,29.97,7,0,12,0.00
2013-4-21,83,63,44,60,49,41,92,65,32,30.02,29.90,9,1,12,0.00
2013-4-22,90,66,47,60,50,44,92,62,29,29.95,29.83,9,0,11,0.00
2013-4-23,85,64,49,54,42,27,92,50,14,29.91,29.82,12,1,14,0.00
2013-4-24,64,54,47,53,48,45,94,83,66,29.94,29.83,12,1,16,0.00
2013-4-25,64,56,51,53,49,46,88,80,66,30.12,29.94,5,1,12,0.00
2013-4-26,64,54,50,54,49,47,90,83,67,30.22,30.11,9,0,13,0.00
2013-4-27,72,54,48,59,49,45,94,84,61,30.22,30.05,1,1,0,0.00
2013-4-28,81,61,43,60,50,41,95,70,39,30.06,29.85,1,1,0,0.00
2013-4-29,87,67,51,62,53,46,88,63,35,29.88,29.74,1,1,0,0.00
2013-4-30,81,66,50,54,47,20,86,55,15,29.84,29.75,1,1,0,0.00
2013-5-1,87,70,53,50,33,20,64,28,10,30.07,29.82,1,1,0,0.00
2013-5-2,92,68,46,52,40,30,86,44,12,30.13,30.05,1,1,0,0.00
2013-5-3,92,66,47,58,44,37,81,48,20,30.06,29.77,1,1,0,0.00
2013-5-4,91,65,48,60,50,44,92,63,23,29.77,29.53,1,1,0,0.00
2013-5-5,65,59,53,52,50,49,88,73,61,29.81,29.60,1,1,0,0.00
2013-5-6,72,62,54,55,52,50,89,72,46,29.96,29.80,11,1,12,0.00
2013-5-7,74,61,54,58,53,51,92,78,47,30.04,29.94,0,0,0,0.00
2013-5-8,64,56,52,54,51,48,93,84,69,30.12,30.02,0,0,0,0.00
2013-5-9,67,57,52,54,51,48,90,80,62,30.16,30.08,0,0,0,0.00
2013-5-10,74,58,51,60,52,48,93,82,59,30.17,30.09,0,0,0,0.00
2013-5-11,83,60,50,64,53,47,95,80,52,30.13,30.03,0,0,0,0.00
2013-5-12,77,60,48,62,53,46,96,78,52,30.13,30.01,0,0,0,0.00
2013-5-13,78,62,48,61,53,46,98,74,52,30.07,29.92,0,0,0,0.00
2013-5-14,80,63,50,55,50,45,89,64,38,29.96,29.88,0,0,0,0.00
2013-5-15,72,59,47,52,48,43,89,70,44,30.02,29.96,0,0,0,0.00
2013-5-16,70,59,52,57,52,48,90,78,57,30.00,29.94,0,0,0,0.00
2013-5-17,70,58,46,53,48,43,92,72,51,30.06,29.95,0,0,0,0.00
2013-5-18,78,61,45,54,49,42,93,69,41,30.11,30.04,0,0,0,0.00
2013-5-19,85,66,49,53,48,43,87,58,29,30.11,29.96,0,0,0,0.00
2013-5-20,91,66,49,55,49,45,88,61,24,29.99,29.90,0,0,0,0.00
2013-5-21,71,59,49,52,47,41,87,67,45,29.97,29.88,0,0,0,0.00
2013-5-22,68,56,45,45,39,32,79,55,28,30.02,29.88,0,0,0,0.00
2013-5-23,71,57,44,47,44,40,87,64,37,29.99,29.89,0,0,0,0.00
2013-5-24,74,58,44,49,45,40,87,64,37,29.98,29.91,0,0,0,0.00
2013-5-25,74,57,44,50,46,40,90,70,42,30.01,29.93,0,0,0,0.00
2013-5-26,71,60,52,57,52,48,94,76,56,30.10,30.01,0,0,0,0.00
2013-5-27,66,58,50,58,54,47,91,85,71,30.09,29.97,0,0,0,0.01
2013-5-28,72,62,56,61,55,50,95,80,57,29.98,29.89,0,0,0,0.02
2013-5-29,73,62,52,58,53,47,89,73,54,29.96,29.87,0,0,0,0.00
2013-5-30,78,62,47,52,48,44,91,65,40,29.97,29.91,0,0,0,0.00
2013-5-31,87,67,50,56,50,44,85,57,30,30.00,29.88,0,0,0,0.00
2013-6-1,92,71,52,58,51,45,82,54,30,29.92,29.74,0,0,0,0.00
2013-6-2,84,67,52,57,52,47,85,62,38,29.76,29.62,0,0,0,0.00
2013-6-3,75,61,50,57,52,46,92,73,51,29.86,29.68,0,0,0,0.00
2013-6-4,70,60,54,56,53,50,90,78,59,29.96,29.84,0,0,0,0.00
2013-6-5,72,60,54,56,52,50,92,79,58,29.99,29.91,0,0,0,0.00
2013-6-6,75,59,52,59,53,50,93,81,56,29.94,29.84,0,0,0,0.00
2013-6-7,87,66,53,62,55,51,93,72,40,29.87,29.69,0,0,0,0.00
2013-6-8,92,69,55,65,56,51,88,67,39,29.80,29.68,0,0,0,0.00
2013-6-9,69,62,57,58,55,53,88,79,65,29.88,29.80,0,0,0,0.00
2013-6-10,66,61,57,57,54,52,93,80,68,29.94,29.79,0,0,0,0.00
2013-6-11,79,65,55,59,54,47,87,69,47,29.97,29.86,0,0,0,0.00
2013-6-12,81,63,47,54,49,43,90,64,38,29.97,29.88,0,0,0,0.00
2013-6-13,81,65,48,53,48,43,86,58,31,30.07,29.96,0,0,0,0.00
2013-6-14,90,68,53,54,49,45,82,55,23,29.98,29.80,0,0,0,0.00
2013-6-15,82,61,47,57,50,44,92,70,38,29.97,29.81,0,0,0,0.00
2013-6-16,81,63,48,56,51,44,92,66,41,30.06,29.96,0,0,0,0.00
2013-6-17,76,62,51,58,53,48,92,74,51,30.06,29.98,0,0,0,0.00
2013-6-18,72,61,53,55,52,49,93,76,51,30.00,29.93,0,0,0,0.00
2013-6-19,76,62,49,53,49,45,90,67,43,30.03,29.98,0,0,0,0.00
2013-6-20,80,64,50,52,49,45,87,61,37,29.99,29.91,0,0,0,0.00
2013-6-21,86,66,49,54,50,45,90,60,31,29.96,29.87,0,0,0,0.00
2013-6-22,90,68,50,55,51,45,85,58,28,29.91,29.80,0,0,0,0.00
2013-6-23,70,62,56,62,58,53,93,85,72,29.85,29.79,0,0,0,0.00
2013-6-24,65,61,58,61,57,55,93,88,80,29.87,29.77,0,0,0,0.10
2013-6-25,68,64,60,65,62,58,97,94,88,29.96,29.85,0,0,0,0.32
2013-6-26,81,70,62,68,64,59,96,82,56,30.03,29.94,0,0,0,0.01
2013-6-27,87,71,57,66,60,56,95,71,44,30.06,29.98,0,0,0,0.00
2013-6-28,98,76,58,68,60,55,92,62,35,30.01,29.85,0,0,0,0.00
2013-6-29,104,79,59,65,58,53,83,52,27,29.89,29.75,0,0,0,0.00
2013-6-30,96,74,57,64,57,52,87,60,34,29.82,29.72,0,0,0,0.00
2013-7-1,100,72,56,65,58,52,92,64,30,29.82,29.76,0,0,0,0.00
2013-7-2,96,72,60,67,59,55,89,67,35,29.90,29.78,0,0,0,0.00
2013-7-3,94,70,58,67,59,55,94,72,40,29.89,29.73,0,0,0,0.00
2013-7-4,95,77,61,67,58,49,83,56,33,29.77,29.63,0,0,0,0.00
2013-7-5,78,66,54,59,54,48,86,66,49,29.73,29.66,0,0,0,0.00
2013-7-6,82,64,53,60,54,50,90,73,46,29.78,29.70,0,0,0,0.00
2013-7-7,82,62,54,60,54,50,92,77,46,29.85,29.76,0,0,0,0.00
2013-7-8,82,64,55,61,55,52,90,75,48,29.96,29.85,0,0,0,0.00
2013-7-9,90,66,51,60,54,49,94,71,35,30.02,29.91,0,0,0,0.00
2013-7-10,78,60,53,59,53,50,95,80,50,29.98,29.88,0,0,0,0.00
2013-7-11,74,59,52,58,53,50,93,80,55,29.93,29.85,0,0,0,0.00
2013-7-12,82,62,53,60,53,49,90,76,47,29.94,29.84,0,0,0,0.00
2013-7-13,85,63,48,60,53,46,93,72,42,29.94,29.87,0,0,0,0.00
2013-7-14,81,61,52,59,53,49,93,77,46,29.98,29.88,0,0,0,0.00
2013-7-15,72,58,51,58,53,49,95,83,59,29.92,29.83,0,0,0,0.00
2013-7-16,71,61,55,58,54,52,89,80,63,30.01,29.85,0,0,0,0.00
2013-7-17,78,63,55,61,56,52,93,80,53,30.08,30.00,0,0,0,0.00
2013-7-18,80,62,54,60,55,51,94,78,48,30.05,29.92,0,0,0,0.00
2013-7-19,85,63,51,62,54,49,95,77,45,29.93,29.79,0,0,0,0.00
2013-7-20,86,64,52,62,54,49,94,75,44,29.83,29.71,0,0,0,0.00
2013-7-21,85,64,54,60,54,51,92,74,42,29.87,29.74,0,0,0,0.00
2013-7-22,88,67,54,63,57,51,91,73,40,29.95,29.87,0,0,0,0.00
2013-7-23,80,66,58,62,58,55,92,75,55,29.98,29.92,0,0,0,0.00
2013-7-24,83,65,55,60,56,52,94,74,45,29.97,29.88,0,0,0,0.00
2013-7-25,77,61,54,59,54,52,94,79,52,30.01,29.90,0,0,0,0.00
2013-7-26,77,61,54,61,55,52,95,83,55,30.08,29.99,0,0,0,0.00
2013-7-27,77,61,54,60,55,52,95,83,56,30.02,29.85,0,0,0,0.00
2013-7-28,77,60,54,60,54,51,96,82,54,29.87,29.78,0,0,0,0.00
2013-7-29,73,61,55,57,54,51,88,77,55,30.01,29.82,0,0,0,0.00
2013-7-30,75,60,54,60,54,51,92,81,57,30.09,30.01,0,0,0,0.00
2013-7-31,77,63,55,58,54,51,90,75,51,30.07,29.96,0,0,0,0.00
2013-8-1,76,63,51,58,53,49,94,73,48,30.04,29.93,0,0,0,0.00
2013-8-2,87,65,50,59,53,47,94,69,39,29.95,29.86,0,0,0,0.00
2013-8-3,82,61,53,60,53,49,92,77,46,29.95,29.89,0,0,0,0.00
2013-8-4,77,60,54,59,53,51,91,79,52,29.99,29.93,0,0,0,0.00
2013-8-5,77,60,54,60,53,50,93,81,52,30.01,29.92,0,0,0,0.00
2013-8-6,74,61,53,57,54,51,94,79,55,30.03,29.96,0,0,0,0.00
2013-8-7,72,63,56,59,56,54,92,81,63,30.08,30.01,4,0,6,0.00
2013-8-8,76,63,55,60,56,52,93,79,55,30.02,29.93,0,0,0,0.00
2013-8-9,76,61,54,59,55,52,94,81,55,29.98,29.90,0,0,0,0.00
2013-8-10,77,63,56,60,56,53,91,79,54,30.02,29.96,0,0,0,0.00
2013-8-11,78,62,55,61,56,53,94,81,53,30.01,29.92,0,0,0,0.00
2013-8-12,83,63,55,62,55,52,94,79,47,29.98,29.91,0,0,0,0.00
2013-8-13,88,66,55,61,55,52,94,72,40,29.98,29.88,0,0,0,0.00
2013-8-14,89,67,50,60,55,46,92,69,32,29.95,29.86,0,0,0,0.00
2013-8-15,86,69,58,67,61,55,95,79,49,29.93,29.88,0,0,0,0.00
2013-8-16,89,68,58,67,60,55,96,77,44,29.96,29.91,0,0,0,0.00
2013-8-17,86,68,53,61,56,51,94,70,39,29.96,29.81,5,0,5,0.00
2013-8-18,92,71,55,65,58,52,93,68,40,29.87,29.74,7,0,10,0.00
2013-8-19,88,70,59,65,58,54,91,70,43,29.86,29.76,0,0,0,0.00
2013-8-20,86,67,60,63,59,56,93,78,43,29.88,29.78,0,0,0,0.00
2013-8-21,79,64,57,60,56,53,88,77,51,29.93,29.84,8,0,11,0.00
2013-8-22,73,62,56,58,55,53,92,79,56,29.96,29.88,6,0,10,0.00
2013-8-23,80,64,57,60,56,52,91,76,51,29.91,29.77,8,0,8,0.00
2013-8-24,80,65,54,60,56,51,94,76,50,29.87,29.80,14,0,14,0.00
2013-8-25,81,68,60,66,60,56,93,79,58,29.92,29.85,6,0,11,0.00
2013-8-26,80,66,58,63,57,53,92,76,47,29.99,29.88,5,0,7,0.00
2013-8-27,87,65,51,61,56,48,93,74,39,29.88,29.80,6,0,10,0.00
2013-8-28,83,67,58,65,61,56,96,82,55,29.92,29.82,10,0,12,0.00
2013-8-29,81,68,61,66,62,59,95,82,55,30.03,29.92,6,0,12,0.00
2013-8-30,91,71,57,66,60,55,95,71,40,30.01,29.88,6,0,12,0.00
2013-8-31,83,66,54,62,57,51,93,76,44,29.95,29.87,6,1,11,0.00
2013-9-1,80,65,54,62,58,52,93,79,46,29.92,29.86,9,0,12,0.00
2013-9-2,83,69,61,65,62,58,94,80,53,29.93,29.86,7,0,11,0.00
2013-9-3,82,67,55,60,57,52,94,74,41,29.96,29.89,6,0,9,0.00
2013-9-6,76,70,64,52,51,50,60,51,42,29.82,29.81,0,0,0,0.00
2013-9-7,97,72,52,56,52,44,86,55,19,29.86,29.77,6,0,7,0.00
2013-9-8,87,66,55,60,55,52,94,72,39,29.86,29.74,7,0,10,0.00
2013-9-9,91,66,53,60,55,50,95,75,31,29.80,29.68,11,0,11,0.00
2013-9-10,79,65,58,63,59,55,94,83,55,29.88,29.71,6,1,9,0.00
2013-9-11,75,67,63,62,60,59,90,79,62,29.98,29.88,4,0,8,0.00
2013-9-12,78,65,59,64,60,56,94,84,58,29.96,29.87,7,0,11,0.00
2013-9-13,79,63,56,62,57,53,94,80,52,29.88,29.73,6,0,9,0.00
2013-9-14,73,62,56,60,56,53,92,82,62,29.80,29.71,6,0,7,0.00
2013-9-15,78,64,54,60,57,52,94,79,52,29.83,29.74,6,1,11,0.00
2013-9-16,84,66,54,62,56,52,94,75,44,29.87,29.74,5,1,7,0.00
2013-9-17,75,64,54,59,54,50,94,72,53,29.86,29.78,9,0,12,0.00
2013-9-18,86,67,56,54,50,47,79,58,28,29.89,29.78,6,0,7,0.00
2013-9-19,91,65,48,55,49,44,89,62,25,29.84,29.72,6,0,6,0.00
2013-9-20,78,62,46,63,55,44,93,79,57,29.82,29.75,9,0,10,0.00
2013-9-21,71,63,56,64,58,53,96,86,61,29.87,29.76,7,0,10,0.38
2013-9-22,75,62,50,58,54,48,95,77,49,29.98,29.87,7,0,12,0.00
2013-9-23,84,66,53,63,56,50,90,74,48,30.00,29.90,6,0,6,0.00
2013-9-24,77,64,56,57,54,50,91,72,47,29.95,29.87,10,0,13,0.00
2013-9-25,73,60,51,52,48,43,89,67,38,29.92,29.79,11,1,14,0.00
2013-9-26,77,61,49,51,44,39,77,57,28,29.97,29.83,6,0,9,0.00
2013-9-27,80,64,48,50,44,36,85,53,23,30.07,29.96,5,0,7,0.00
2013-9-28,83,62,46,57,49,42,91,68,27,30.07,29.99,6,1,10,0.00
2013-9-29,74,64,55,63,59,52,95,85,66,30.08,30.02,4,1,7,0.01
2013-9-30,76,65,55,66,60,46,96,83,62,30.04,29.95,3,0,9,0.04
2013-10-1,77,61,46,55,49,43,93,68,42,29.99,29.88,8,1,10,0.00
2013-10-2,76,62,51,53,48,43,87,64,41,30.01,29.91,6,0,7,0.00
2013-10-3,76,64,48,44,37,27,76,42,17,30.07,29.93,13,2,15,0.00
2013-10-4,82,71,57,37,31,26,38,24,13,30.06,29.97,15,1,16,0.00
2013-10-5,83,64,43,44,35,30,70,38,15,30.17,30.06,12,1,12,0.00
2013-10-6,84,64,43,42,37,34,74,42,18,30.12,29.97,10,1,11,0.00
2013-10-7,86,63,46,48,41,33,74,48,15,29.98,29.84,4,0,9,0.00
2013-10-8,80,60,45,51,46,41,90,64,28,29.90,29.68,5,0,10,0.00
2013-10-9,72,59,47,51,44,42,88,61,37,29.74,29.61,7,0,10,0.00
2013-10-10,75,58,48,53,46,40,89,68,33,29.99,29.72,7,0,14,0.00
2013-10-11,70,54,48,53,48,46,98,83,53,30.08,29.97,7,1,9,0.00
2013-10-12,72,55,44,55,47,42,96,78,44,30.01,29.87,6,0,10,0.00
2013-10-13,77,59,46,54,46,41,93,68,30,30.04,29.90,5,0,10,0.00
2013-10-14,80,59,42,49,42,38,92,60,27,30.10,29.97,7,0,9,0.00
2013-10-15,83,60,41,47,38,35,88,50,19,30.03,29.92,10,0,10,0.00
2013-10-16,82,60,41,42,38,34,80,48,20,30.08,29.97,7,1,7,0.00
2013-10-17,85,60,42,48,39,34,85,52,18,30.08,29.93,4,0,6,0.00
2013-10-18,80,57,47,55,47,44,95,73,35,30.04,29.96,6,0,7,0.00
2013-10-19,84,58,42,52,45,40,95,69,22,30.07,29.96,5,0,5,0.00
2013-10-20,78,55,47,54,48,45,96,79,41,30.01,29.89,6,0,9,0.00
2013-10-21,73,55,48,55,49,46,96,83,50,30.00,29.89,5,0,7,0.00
2013-10-22,76,55,47,56,49,45,96,83,48,30.01,29.90,5,0,7,0.00
2013-10-23,73,54,47,56,49,46,96,86,51,29.97,29.87,5,0,9,0.00
2013-10-24,65,54,48,53,48,44,95,84,61,30.09,29.95,6,1,10,0.00
2013-10-25,71,54,44,55,47,42,96,81,53,30.17,30.06,5,1,7,0.00
2013-10-26,82,56,40,54,46,38,94,74,33,30.14,30.00,3,0,6,0.00
2013-10-27,62,53,49,54,49,47,95,87,65,30.02,29.62,13,0,16,0.00
2013-10-28,67,54,44,52,46,41,94,76,48,29.81,29.64,5,0,6,0.00
2013-10-29,65,54,47,51,47,44,92,78,54,30.04,29.80,6,0,6,0.00
2013-10-30,70,54,45,53,46,42,96,78,47,30.14,30.03,4,0,9,0.00
2013-10-31,76,55,40,50,44,38,93,70,37,30.17,30.04,5,0,7,0.00
2013-11-1,76,57,42,50,44,38,92,66,36,30.14,29.99,13,2,13,0.00
2013-11-2,73,55,44,56,47,40,95,75,43,30.02,29.87,5,0,9,0.00
2013-11-3,66,54,45,43,38,31,74,57,27,30.04,29.91,12,1,12,0.00
2013-11-4,73,56,41,40,36,25,86,53,18,30.08,29.91,13,2,13,0.00
2013-11-5,78,60,46,43,40,36,72,50,25,30.20,30.05,7,1,7,0.00
2013-11-6,73,58,44,46,41,38,86,58,29,30.25,30.13,11,2,12,0.00
2013-11-7,77,59,48,51,45,40,88,63,29,30.16,30.05,5,1,6,0.00
2013-11-8,77,56,43,55,47,41,94,76,36,30.07,29.94,6,0,9,0.00
2013-11-9,73,55,41,52,46,39,95,75,38,30.03,29.93,7,1,11,0.00
2013-11-10,70,54,42,55,47,40,96,81,52,30.10,30.00,6,0,9,0.00
2013-11-11,66,55,45,53,48,42,95,81,55,30.14,30.05,7,1,7,0.00
2013-11-20,60,55,51,59,54,50,98,97,96,29.89,29.82,0,0,0,0.02
2013-11-21,65,57,51,54,37,20,96,56,20,29.97,29.87,11,1,18,0.01
2013-11-22,75,66,53,20,14,8,24,14,9,30.01,29.86,15,2,21,0.00
2013-11-23,66,54,42,40,34,15,75,49,14,30.09,29.92,13,2,14,0.00
2013-11-24,64,48,34,45,38,30,89,70,39,30.24,30.08,9,1,11,0.00
2013-11-25,64,48,36,47,40,33,93,76,51,30.32,30.23,9,1,10,0.00
2013-11-26,64,50,39,46,41,37,94,74,45,30.27,30.02,11,1,11,0.00
2013-11-27,65,52,40,48,43,37,92,72,50,30.02,29.82,12,2,14,0.00
2013-11-28,73,52,40,49,42,38,93,71,37,30.05,29.85,3,0,7,0.00
2013-11-29,69,51,38,49,42,36,92,74,40,30.21,30.05,9,2,13,0.00
2013-11-30,72,52,41,50,44,38,93,77,42,30.26,30.16,4,2,6,0.00
2013-12-1,75,53,38,51,44,36,94,74,38,30.33,30.19,5,0,5,0.00
2013-12-2,67,52,39,55,47,36,96,85,60,30.22,29.94,11,0,15,0.00
2013-12-3,59,50,41,53,37,30,93,62,36,29.94,29.81,12,3,14,0.00
2013-12-4,55,42,31,36,30,26,87,64,33,30.08,29.93,9,4,10,0.00
2013-12-5,53,38,26,34,27,20,90,68,30,30.15,30.07,9,1,10,0.00
2013-12-6,49,39,26,47,34,23,93,81,53,30.19,29.88,9,1,10,0.29
2013-12-7,49,41,32,46,32,26,94,73,42,30.26,29.90,16,2,19,0.00
2013-12-8,48,36,28,33,27,24,90,71,42,30.32,30.21,8,0,10,0.00
2013-12-9,50,36,24,32,25,21,90,67,35,30.42,30.30,12,1,14,0.00
2013-12-10,53,38,26,35,28,22,92,68,39,30.41,30.20,8,1,10,0.00
2013-12-11,56,41,29,37,32,25,92,70,45,30.24,30.16,15,2,15,0.00
2013-12-12,59,42,30,39,33,26,91,71,39,30.27,30.14,9,1,10,0.00
2013-12-13,65,45,32,42,36,29,93,73,34,30.34,30.21,4,0,5,0.00
2013-12-14,60,44,32,44,37,29,93,77,49,30.39,30.29,11,1,13,0.00
2013-12-15,63,44,31,44,36,28,94,75,44,30.36,30.22,7,1,9,0.00
2013-12-16,64,47,35,45,37,32,93,71,43,30.24,30.10,14,1,15,0.00
2013-12-17,64,48,37,46,39,34,92,74,46,30.17,30.02,14,1,14,0.00
2013-12-18,61,48,38,49,42,35,92,82,63,30.02,29.74,7,0,11,0.00
2013-12-19,64,51,38,45,33,17,89,57,25,29.91,29.72,9,0,12,0.00
2013-12-20,69,50,34,40,31,21,79,52,18,29.99,29.90,9,0,10,0.00
2013-12-21,69,53,42,53,45,39,95,78,52,30.07,29.94,10,0,10,0.00
2013-12-22,63,48,36,48,39,33,94,73,44,30.28,30.07,9,1,9,0.00
2013-12-23,65,48,36,45,38,32,92,72,45,30.39,30.27,7,1,9,0.00
2013-12-24,72,50,38,48,40,35,91,72,39,30.33,30.18,7,1,10,0.00
2013-12-25,63,46,32,46,38,30,94,75,48,30.29,30.18,12,2,17,0.00
2013-12-26,65,47,33,44,36,30,92,71,42,30.25,30.14,14,1,16,0.00
2013-12-27,60,45,34,45,36,31,92,72,44,30.23,30.11,8,0,10,0.00
2013-12-28,71,46,30,42,34,28,92,68,31,30.15,29.99,5,0,9,0.00
2013-12-29,64,46,31,38,32,28,88,63,29,30.17,30.07,15,1,15,0.00
2013-12-30,62,46,32,41,35,28,88,67,44,30.24,30.15,11,1,15,0.00
2013-12-31,65,47,38,47,40,34,95,80,44,30.27,30.14,6,1,6,0.00
2014-1-1,64,46,31,45,37,29,93,74,33,30.20,30.10,6,0,6,0.00
2014-1-2,65,48,35,46,38,32,93,69,39,30.17,30.03,8,1,11,0.00